Impacts TAF Board
For situational awareness. Not to be used for flight planning purposes.
IDs:

KLAX - Los Angeles Intl, CA, US

Issued at 1427 UTC 21 May 2019
Updated at 1452 UTC 21 May 2019
Potential Impact None Slight Moderate High
Time<<22/03Z 22/04Z 22/05Z 22/06Z 22/07Z 22/08Z 22/09Z 22/10Z 22/11Z 22/12Z 22/13Z 22/14Z 22/15Z>>
Type PRVL PRVL PRVL PRVL PRVL PRVL PRVL PRVL PRVL PRVL PRVL PRVL PRVL
VIS >6 >6 >6 >6 >6 >6 >6 >6 >6 >6 >6 >6 >6
CIG 200 200 200 200 200 200 200 200 200 200 200 200 200
Cover BKN BKN BKN BKN BKN BKN BKN BKN BKN BKN BKN BKN BKN
FltCat VFR VFR VFR VFR VFR VFR VFR VFR VFR VFR VFR VFR VFR
WX -- -- -- -- -- -- -- -- -- -- -- -- --
WDir 280 280 280 280 280 280 330 330 330 330 330 330 330
WSpd 14 14 14 14 14 14 10 10 10 10 10 10 10
WGst 22 22 22 22 22 22 -- -- -- -- -- -- --
Raw TAF
KLAX 211427Z 2114/2218 24003KT P6SM BKN019 OVC025
  FM211500 26012KT P6SM BKN025 BKN050
  FM211800 26015G25KT P6SM SCT025 BKN050
  FM212100 27020G30KT P6SM FEW025 SCT050
  FM220300 28014G22KT P6SM SCT050 BKN200
  FM220900 33010KT P6SM SCT050 BKN200


METAR Board
Radar Display
Forecast Discussion
For situational awareness. Not to be used for flight planning purposes.